Gila Bend, Arizona
Current Conditions -  °F | °C
As of 11:56 AM on Saturday 20 Dec 2014 (Local Time) from KGXF Reporting Station
Clear Clear  
Wind Chill: 58°   Ceiling: Unl
Heat Index: 58°   Visibility: 10mi
Dew Point: 44°   Wind: 2mph
Humidity: 58%   Direction: 360°N
Pressure: 30.15"   Gusts: NA
Location:  32.95°N, 112.72°W
Report Text: KGXF 201856Z AUTO 36002KT 10SM CLR 15/07 A3015 RMK AO2 SLP207 T01460065
Loading
Personal Weather Stations






























Interactive Weather Map New forecast layout! Learn more

10-Day Weather Forecast

Advertisements
Track Severe Weather on mobile